Time;durP1;ratioP1;P1;durP2;ratioP2;P2;SDS_P1;SDS_P2;PMS_P1;PMS_P2;Temp;Humidity;BMP_temperature;BMP_pressure;BME280_temperature;BME280_humidity;BME280_pressure;Samples;Min_cycle;Max_cycle;Signal;HPM_P1;HPM_P2
2022/09/08 00:02:16;;;;;;;32.72;29.52;;;16.40;99.90;;;;;;5033957;28;20518;-29
2022/09/08 00:04:43;;;;;;;34.92;31.65;;;16.30;99.90;;;;;;5039592;28;20549;-29
2022/09/08 00:07:09;;;;;;;34.13;30.90;;;16.30;99.90;;;;;;5032710;28;20033;-29
2022/09/08 00:09:35;;;;;;;34.28;31.10;;;16.30;99.90;;;;;;5034192;28;20076;-30
2022/09/08 00:12:02;;;;;;;36.15;32.72;;;16.30;99.90;;;;;;5033809;28;20071;-30
2022/09/08 00:14:30;;;;;;;36.53;32.88;;;16.30;99.90;;;;;;5033651;28;20049;-30
2022/09/08 00:16:56;;;;;;;37.50;33.88;;;16.20;99.90;;;;;;5033459;28;20124;-30
2022/09/08 00:19:22;;;;;;;36.20;32.78;;;16.20;99.90;;;;;;5033672;28;20429;-31
2022/09/08 00:21:48;;;;;;;36.17;32.80;;;16.20;99.90;;;;;;5033921;28;20088;-30
2022/09/08 00:24:13;;;;;;;37.05;33.47;;;16.20;99.90;;;;;;5033114;28;20029;-29
2022/09/08 00:26:39;;;;;;;38.15;34.60;;;16.20;99.90;;;;;;5033549;28;20039;-29
2022/09/08 00:29:05;;;;;;;41.80;37.78;;;16.20;99.90;;;;;;5034753;28;20044;-30
2022/09/08 00:31:31;;;;;;;39.08;35.38;;;16.20;99.90;;;;;;5033260;28;20072;-29
2022/09/08 00:33:57;;;;;;;38.05;34.50;;;16.20;99.90;;;;;;5030459;28;20060;-30
2022/09/08 00:36:23;;;;;;;39.33;35.53;;;16.10;99.90;;;;;;5032854;28;20095;-30
2022/09/08 00:38:51;;;;;;;37.97;34.25;;;16.20;99.90;;;;;;5033767;28;20514;-31
2022/09/08 00:41:19;;;;;;;37.45;33.92;;;16.20;99.90;;;;;;5035942;28;20045;-30
2022/09/08 00:43:47;;;;;;;36.58;33.15;;;16.20;99.90;;;;;;5033258;28;20125;-30
2022/09/08 00:46:36;;;;;;;38.40;34.72;;;16.20;99.90;;;;;;5032353;28;20116;-30
2022/09/08 00:49:16;;;;;;;40.60;36.60;;;16.20;99.90;;;;;;5013010;28;20053;-30
2022/09/08 00:51:56;;;;;;;42.22;37.95;;;16.30;99.90;;;;;;5035233;28;20041;-30
2022/09/08 00:54:22;;;;;;;44.42;40.10;;;16.30;99.90;;;;;;5032754;28;20048;-30
2022/09/08 00:56:49;;;;;;;38.63;34.83;;;16.40;99.90;;;;;;5032437;28;20041;-29
2022/09/08 00:59:19;;;;;;;42.15;37.85;;;16.40;99.90;;;;;;5032876;28;20120;-32
2022/09/08 01:01:44;;;;;;;42.38;37.97;;;16.50;99.90;;;;;;5032619;28;20079;-29
2022/09/08 01:04:10;;;;;;;44.42;40.03;;;16.50;99.90;;;;;;5033365;28;20076;-30
2022/09/08 01:12:49;;;;;;;39.97;36.05;;;16.60;99.90;;;;;;5050831;28;20056;-31
2022/09/08 01:15:21;;;;;;;43.58;39.22;;;16.60;99.90;;;;;;5032607;28;20037;-30
2022/09/08 01:17:48;;;;;;;42.08;38.10;;;16.60;99.90;;;;;;5027682;28;20375;-31
2022/09/08 01:20:16;;;;;;;38.25;34.63;;;16.60;99.90;;;;;;5033116;28;20497;-30
2022/09/08 01:23:19;;;;;;;43.78;39.50;;;16.70;99.90;;;;;;5037818;28;20036;-30
2022/09/08 01:26:06;;;;;;;43.20;38.92;;;16.70;99.90;;;;;;5030776;28;20055;-32
2022/09/08 01:28:41;;;;;;;42.40;38.28;;;16.70;99.90;;;;;;5032746;28;20075;-29
2022/09/08 01:31:07;;;;;;;41.25;37.15;;;16.70;99.90;;;;;;5033116;28;20400;-30
2022/09/08 01:33:33;;;;;;;40.00;36.05;;;16.70;99.90;;;;;;5032843;28;20065;-31
2022/09/08 01:36:07;;;;;;;42.90;38.63;;;16.70;99.90;;;;;;5032577;28;20040;-30
2022/09/08 01:38:32;;;;;;;40.22;36.22;;;16.70;99.90;;;;;;5033032;28;20037;-30
2022/09/08 01:40:58;;;;;;;46.97;42.00;;;16.80;99.90;;;;;;5032892;28;20660;-30
2022/09/08 01:43:24;;;;;;;39.55;35.47;;;16.80;99.90;;;;;;5016318;28;20037;-30
2022/09/08 01:45:49;;;;;;;39.00;35.08;;;16.80;99.90;;;;;;5032472;28;20029;-30
2022/09/08 01:48:15;;;;;;;40.05;36.28;;;16.80;99.90;;;;;;5031957;28;20037;-30
2022/09/08 01:50:41;;;;;;;42.60;38.40;;;16.80;99.90;;;;;;5032946;28;20037;-30
2022/09/08 01:53:08;;;;;;;37.20;33.88;;;16.80;99.90;;;;;;5032947;28;20029;-31
2022/09/08 01:55:34;;;;;;;42.40;38.10;;;16.80;99.90;;;;;;5032655;28;20044;-30
2022/09/08 01:57:59;;;;;;;41.65;37.65;;;16.80;99.90;;;;;;5018524;28;20045;-30
2022/09/08 02:00:25;;;;;;;40.17;36.00;;;16.90;99.90;;;;;;5036762;28;20383;-30
2022/09/08 02:02:51;;;;;;;39.15;35.35;;;16.90;99.90;;;;;;5036474;28;20102;-30
2022/09/08 02:05:17;;;;;;;41.30;36.90;;;16.90;99.90;;;;;;5036088;28;20033;-30
2022/09/08 02:07:43;;;;;;;41.25;37.33;;;16.90;99.90;;;;;;5043668;28;20292;-29
2022/09/08 02:10:09;;;;;;;39.88;36.20;;;16.90;99.90;;;;;;5033089;28;20511;-30
2022/09/08 02:12:34;;;;;;;40.58;36.58;;;16.90;99.90;;;;;;5033837;28;20043;-30
2022/09/08 02:15:00;;;;;;;42.05;37.95;;;17.00;99.90;;;;;;5035805;28;20492;-30
2022/09/08 02:17:29;;;;;;;38.63;34.90;;;17.00;99.90;;;;;;5036413;28;20052;-29
2022/09/08 02:19:55;;;;;;;41.10;37.15;;;17.00;99.90;;;;;;5035715;28;20033;-30
2022/09/08 02:22:22;;;;;;;42.10;37.90;;;17.00;99.90;;;;;;5029465;28;20041;-30
2022/09/08 02:24:47;;;;;;;38.60;34.90;;;17.00;99.90;;;;;;5035827;28;20037;-29
2022/09/08 02:27:13;;;;;;;41.78;37.42;;;17.00;99.90;;;;;;5034230;28;20033;-30
2022/09/08 02:29:39;;;;;;;40.10;36.00;;;17.00;99.90;;;;;;5032153;28;20037;-30
2022/09/08 02:32:05;;;;;;;40.33;36.38;;;17.10;99.90;;;;;;5035494;28;20068;-31
2022/09/08 02:34:30;;;;;;;41.03;37.05;;;17.10;99.90;;;;;;5035028;28;20124;-30
2022/09/08 02:36:56;;;;;;;40.80;36.67;;;17.10;99.90;;;;;;5053913;28;20555;-30
2022/09/08 02:39:22;;;;;;;40.00;35.92;;;17.10;99.90;;;;;;5035403;28;20487;-30
2022/09/08 02:41:48;;;;;;;42.40;38.20;;;17.10;99.90;;;;;;5035576;28;20036;-30
2022/09/08 02:44:14;;;;;;;39.95;36.05;;;17.10;99.90;;;;;;5035255;28;20091;-30
2022/09/08 02:46:41;;;;;;;42.17;38.20;;;17.00;99.90;;;;;;5023009;28;20068;-29
2022/09/08 02:49:13;;;;;;;40.45;36.45;;;17.10;99.90;;;;;;5045830;28;20094;-30
2022/09/08 02:51:39;;;;;;;41.58;37.63;;;17.10;99.90;;;;;;5041729;28;20041;-30
2022/09/08 02:54:05;;;;;;;40.90;36.95;;;17.10;99.90;;;;;;5035524;28;20040;-29
2022/09/08 02:56:31;;;;;;;40.30;36.28;;;17.10;99.90;;;;;;5035082;28;20037;-30
2022/09/08 02:58:57;;;;;;;40.80;36.50;;;17.10;99.90;;;;;;5035225;28;20041;-30
2022/09/08 03:01:23;;;;;;;42.72;38.55;;;17.10;99.90;;;;;;5035184;28;20043;-30
2022/09/08 03:03:49;;;;;;;42.67;38.53;;;17.10;99.90;;;;;;5034896;28;20050;-31
2022/09/08 03:06:16;;;;;;;42.05;37.75;;;17.10;99.90;;;;;;5035070;28;20059;-30
2022/09/08 03:08:42;;;;;;;41.03;36.83;;;17.10;99.90;;;;;;5010653;28;20045;-30
2022/09/08 03:11:09;;;;;;;42.53;38.15;;;17.10;99.90;;;;;;5018378;28;20087;-30
2022/09/08 03:13:35;;;;;;;40.10;36.25;;;17.10;99.90;;;;;;5034807;28;20033;-29
2022/09/08 03:16:03;;;;;;;42.88;38.65;;;17.00;99.90;;;;;;5030871;28;20455;-30
2022/09/08 03:18:29;;;;;;;46.50;41.70;;;17.10;99.90;;;;;;5034913;28;20048;-30
2022/09/08 03:21:06;;;;;;;44.72;40.20;;;17.00;99.90;;;;;;5035005;28;20041;-29
2022/09/08 03:23:33;;;;;;;40.83;36.75;;;17.00;99.90;;;;;;5034704;28;20119;-29
2022/09/08 03:26:09;;;;;;;43.50;38.85;;;17.00;99.90;;;;;;5034506;28;20037;-30
2022/09/08 03:28:34;;;;;;;44.03;39.60;;;17.00;99.90;;;;;;5034767;28;20052;-31
2022/09/08 03:31:00;;;;;;;43.95;39.40;;;17.00;99.90;;;;;;5034404;28;20037;-32
2022/09/08 03:33:28;;;;;;;44.33;39.72;;;17.00;99.90;;;;;;5034813;28;20041;-30
2022/09/08 03:35:54;;;;;;;45.45;40.85;;;17.00;99.90;;;;;;5034344;28;20049;-30
2022/09/08 03:38:20;;;;;;;43.50;39.20;;;16.90;99.90;;;;;;5034176;28;20490;-30
2022/09/08 03:40:46;;;;;;;44.85;40.28;;;16.90;99.90;;;;;;5017707;28;20063;-30
2022/09/08 03:43:12;;;;;;;42.70;38.50;;;16.90;99.90;;;;;;5034644;28;20056;-32
2022/09/08 03:45:44;;;;;;;45.80;41.05;;;16.80;99.90;;;;;;5034120;28;20037;-30
2022/09/08 03:48:10;;;;;;;44.40;39.90;;;16.80;99.90;;;;;;5033960;28;20083;-30
2022/09/08 03:50:36;;;;;;;37.97;34.38;;;16.80;99.90;;;;;;5027725;28;20029;-32
2022/09/08 03:53:01;;;;;;;44.67;40.03;;;16.70;99.90;;;;;;5035232;28;20077;-31
2022/09/08 03:55:27;;;;;;;42.65;38.40;;;16.70;99.90;;;;;;5033821;28;20138;-31
2022/09/08 03:57:53;;;;;;;40.78;36.75;;;16.70;99.90;;;;;;5033122;28;20581;-29
2022/09/08 04:00:19;;;;;;;43.30;38.80;;;16.70;99.90;;;;;;5032176;28;20065;-30
2022/09/08 04:02:45;;;;;;;42.70;38.40;;;16.70;99.90;;;;;;5034344;28;20045;-30
2022/09/08 04:05:10;;;;;;;43.95;39.35;;;16.70;99.90;;;;;;5029399;28;20055;-29
2022/09/08 04:07:38;;;;;;;46.03;41.03;;;16.70;99.90;;;;;;5034132;28;20145;-29
2022/09/08 04:10:07;;;;;;;44.63;40.03;;;16.70;99.90;;;;;;5033498;28;20087;-31
2022/09/08 04:12:33;;;;;;;43.80;39.38;;;16.70;99.90;;;;;;5050504;28;20068;-30
2022/09/08 04:15:00;;;;;;;44.33;39.25;;;16.70;99.90;;;;;;5032875;28;20479;-29
2022/09/08 04:17:26;;;;;;;43.65;38.90;;;16.70;99.90;;;;;;5026637;28;20047;-30
2022/09/08 04:19:51;;;;;;;43.83;39.28;;;16.70;99.90;;;;;;5033511;28;20402;-30
2022/09/08 04:22:19;;;;;;;44.33;39.53;;;16.70;99.90;;;;;;5032102;28;20185;-30
2022/09/08 04:24:45;;;;;;;42.60;38.20;;;16.70;99.90;;;;;;5017297;28;20041;-29
2022/09/08 04:27:12;;;;;;;46.42;40.03;;;16.70;99.90;;;;;;5033631;28;20049;-30
2022/09/08 04:29:38;;;;;;;43.40;38.83;;;16.60;99.90;;;;;;5026208;28;20037;-30
2022/09/08 04:32:05;;;;;;;41.50;37.22;;;16.60;99.90;;;;;;5033167;28;20079;-30
2022/09/08 04:34:30;;;;;;;38.97;35.08;;;16.60;99.90;;;;;;5038287;28;20116;-31
2022/09/08 04:36:56;;;;;;;47.20;42.33;;;16.50;99.90;;;;;;5031910;28;20449;-31
2022/09/08 04:39:22;;;;;;;40.78;36.72;;;16.50;99.90;;;;;;5039591;28;20051;-31
2022/09/08 04:41:48;;;;;;;43.30;38.67;;;16.50;99.90;;;;;;5026689;28;20552;-30
2022/09/08 04:44:14;;;;;;;43.08;38.75;;;16.50;99.90;;;;;;5019813;28;20435;-29
2022/09/08 04:46:39;;;;;;;45.35;40.47;;;16.50;99.90;;;;;;5031530;28;20037;-30
2022/09/08 04:49:06;;;;;;;47.22;39.70;;;16.50;99.90;;;;;;5010830;28;20037;-31
2022/09/08 04:51:32;;;;;;;45.50;40.58;;;16.50;99.90;;;;;;5038928;28;20051;-30
2022/09/08 04:54:00;;;;;;;42.58;37.92;;;16.50;99.90;;;;;;5037154;28;20033;-30
2022/09/08 04:56:27;;;;;;;46.70;41.70;;;16.50;99.90;;;;;;5051397;28;20068;-30
2022/09/08 04:58:53;;;;;;;46.88;41.78;;;16.50;99.90;;;;;;5033600;28;20062;-30
2022/09/08 05:01:23;;;;;;;46.90;41.90;;;16.50;99.90;;;;;;5032781;28;20037;-30
2022/09/08 05:03:59;;;;;;;49.30;42.60;;;16.60;99.90;;;;;;5035538;28;20537;-29
2022/09/08 05:06:25;;;;;;;44.53;39.17;;;16.60;99.90;;;;;;5038280;28;20037;-30
2022/09/08 05:08:54;;;;;;;47.65;42.60;;;16.60;99.90;;;;;;5038517;28;20037;-30
2022/09/08 05:11:20;;;;;;;48.17;43.05;;;16.70;99.90;;;;;;5043370;28;20036;-30
2022/09/08 05:13:47;;;;;;;48.10;43.05;;;16.70;99.90;;;;;;5026465;28;20064;-31
2022/09/08 05:16:15;;;;;;;48.30;43.13;;;16.70;99.90;;;;;;5032210;28;20047;-31
2022/09/08 05:18:42;;;;;;;50.03;44.55;;;16.70;99.90;;;;;;5030692;28;20037;-31
2022/09/08 05:21:09;;;;;;;40.35;35.95;;;16.70;99.90;;;;;;5016524;28;20559;-30
2022/09/08 05:23:35;;;;;;;50.28;43.63;;;16.80;99.90;;;;;;5038164;28;20079;-30
2022/09/08 05:26:07;;;;;;;48.10;42.90;;;16.80;99.90;;;;;;5045722;28;20039;-30
2022/09/08 05:28:38;;;;;;;51.42;46.00;;;16.90;99.90;;;;;;5030666;28;20505;-30
2022/09/08 05:31:05;;;;;;;51.72;46.08;;;16.90;99.90;;;;;;5028043;28;20030;-29
2022/09/08 05:33:31;;;;;;;50.28;44.88;;;16.90;99.90;;;;;;5028218;28;20055;-30
2022/09/08 05:35:57;;;;;;;50.40;45.00;;;17.00;99.90;;;;;;5037120;28;20036;-30
2022/09/08 05:38:23;;;;;;;49.88;44.67;;;17.00;99.90;;;;;;5036773;28;20490;-29
2022/09/08 05:40:49;;;;;;;45.55;40.63;;;17.00;99.90;;;;;;5036750;28;20049;-29
2022/09/08 05:43:16;;;;;;;48.97;43.88;;;17.00;99.90;;;;;;5031660;28;20044;-29
2022/09/08 05:45:47;;;;;;;46.28;41.30;;;17.10;99.90;;;;;;5037251;28;20106;-30
2022/09/08 05:48:13;;;;;;;51.97;46.22;;;17.10;99.90;;;;;;5036711;28;20551;-29
2022/09/08 05:50:44;;;;;;;48.00;43.03;;;17.10;99.90;;;;;;5037005;28;20478;-30
2022/09/08 05:53:10;;;;;;;55.72;43.33;;;17.10;99.90;;;;;;5038993;28;20037;-30
2022/09/08 05:55:36;;;;;;;59.03;45.85;;;17.10;99.90;;;;;;5036696;28;20075;-29
2022/09/08 05:58:03;;;;;;;60.35;48.25;;;17.10;99.90;;;;;;5036537;28;20080;-30
2022/09/08 06:00:28;;;;;;;65.03;52.10;;;17.10;99.90;;;;;;5036470;28;20044;-30
2022/09/08 06:02:54;;;;;;;67.85;49.58;;;17.00;99.90;;;;;;5036267;28;20041;-28
2022/09/08 06:05:22;;;;;;;30.65;16.05;;;17.00;99.90;;;;;;5036420;28;20170;-28
2022/09/08 06:07:48;;;;;;;10.85;9.75;;;16.90;99.90;;;;;;5036827;28;20478;-30
2022/09/08 06:10:15;;;;;;;13.05;11.45;;;16.80;99.90;;;;;;5022225;28;20033;-28
2022/09/08 06:12:41;;;;;;;20.23;15.13;;;16.70;99.90;;;;;;5048805;28;20040;-29
2022/09/08 06:15:08;;;;;;;30.90;23.38;;;16.70;99.90;;;;;;5038602;28;20216;-30
2022/09/08 06:17:35;;;;;;;32.90;23.73;;;16.70;99.90;;;;;;5036435;28;20037;-31
2022/09/08 06:20:01;;;;;;;31.48;23.85;;;16.60;99.90;;;;;;5047498;28;20070;-31
2022/09/08 06:22:31;;;;;;;33.50;23.92;;;16.60;99.90;;;;;;5048980;28;20040;-31
2022/09/08 06:24:56;;;;;;;40.72;31.73;;;16.60;99.90;;;;;;5036907;28;20036;-31
2022/09/08 06:27:53;;;;;;;43.55;31.45;;;16.60;99.90;;;;;;5036722;28;20548;-30
2022/09/08 06:30:19;;;;;;;50.30;36.40;;;16.70;99.90;;;;;;5048383;28;20044;-31
2022/09/08 06:32:53;;;;;;;46.78;38.13;;;16.60;99.90;;;;;;5052555;28;20492;-30
2022/09/08 06:35:42;;;;;;;57.90;45.10;;;16.70;99.90;;;;;;5036776;28;20117;-31
2022/09/08 06:38:34;;;;;;;55.90;42.50;;;16.70;99.90;;;;;;5036650;28;20033;-31
2022/09/08 06:41:14;;;;;;;67.45;48.80;;;16.70;99.90;;;;;;5033509;28;20041;-30
2022/09/08 06:43:44;;;;;;;68.38;48.45;;;16.70;99.90;;;;;;5016734;28;20037;-31
2022/09/08 06:46:25;;;;;;;78.10;52.42;;;16.70;99.90;;;;;;5020378;28;20037;-31
2022/09/08 06:48:52;;;;;;;93.63;59.17;;;16.70;99.90;;;;;;5031415;28;20059;-31
2022/09/08 06:51:35;;;;;;;77.95;53.35;;;16.70;99.90;;;;;;5053653;28;20170;-31
2022/09/08 06:54:25;;;;;;;75.70;52.20;;;16.70;99.90;;;;;;5019474;28;20045;-31
2022/09/08 06:56:51;;;;;;;76.45;55.15;;;16.70;99.90;;;;;;5036411;28;20037;-31
2022/09/08 06:59:47;;;;;;;68.32;51.28;;;16.70;99.90;;;;;;5036262;28;20083;-30
2022/09/08 07:02:44;;;;;;;70.03;50.92;;;16.70;99.90;;;;;;5036076;28;20045;-30
2022/09/08 07:05:26;;;;;;;59.15;46.65;;;16.70;99.90;;;;;;5046095;28;20041;-31
2022/09/08 07:08:18;;;;;;;59.83;45.13;;;16.70;99.90;;;;;;5035821;28;20056;-31
2022/09/08 07:11:11;;;;;;;57.78;44.97;;;16.70;99.90;;;;;;5035610;28;20033;-31
2022/09/08 07:13:40;;;;;;;56.13;44.25;;;16.70;99.90;;;;;;5036101;28;20506;-30
2022/09/08 07:16:38;;;;;;;54.40;42.40;;;16.70;99.90;;;;;;5049226;28;20064;-30
2022/09/08 07:19:44;;;;;;;59.65;45.55;;;16.70;99.90;;;;;;5032969;28;20423;-30
2022/09/08 07:22:30;;;;;;;53.80;41.03;;;16.70;99.90;;;;;;5019213;28;20045;-30
2022/09/08 07:25:15;;;;;;;51.17;41.38;;;16.70;99.90;;;;;;5049156;28;20498;-31
2022/09/08 07:27:43;;;;;;;53.95;41.42;;;16.80;99.90;;;;;;5049389;28;20033;-31
2022/09/08 07:30:18;;;;;;;51.92;39.63;;;16.70;99.90;;;;;;5035692;28;20410;-30
2022/09/08 07:32:49;;;;;;;54.88;41.03;;;16.80;99.90;;;;;;5043150;28;20044;-31
2022/09/08 07:35:33;;;;;;;51.95;42.03;;;16.80;99.90;;;;;;5032809;28;20040;-30
2022/09/08 07:38:03;;;;;;;59.58;43.28;;;16.80;99.90;;;;;;5050865;28;20040;-31
2022/09/08 07:40:31;;;;;;;62.58;46.15;;;16.80;99.90;;;;;;5046580;28;20562;-32
2022/09/08 07:42:58;;;;;;;67.55;49.60;;;16.80;99.90;;;;;;5037620;28;20041;-31
2022/09/08 07:45:38;;;;;;;60.03;44.88;;;16.80;99.90;;;;;;5035189;28;20078;-31
2022/09/08 07:48:16;;;;;;;60.72;44.50;;;16.80;99.90;;;;;;5052485;28;20044;-31
2022/09/08 07:50:56;;;;;;;59.25;45.08;;;16.80;99.90;;;;;;5041970;28;20298;-31
2022/09/08 07:53:43;;;;;;;57.20;45.22;;;16.90;99.90;;;;;;5034816;28;20041;-30
2022/09/08 07:56:17;;;;;;;63.75;46.10;;;16.90;99.90;;;;;;5034485;28;20498;-30
2022/09/08 07:59:11;;;;;;;62.10;46.55;;;16.90;99.90;;;;;;5035053;28;20036;-31
2022/09/08 08:01:50;;;;;;;57.53;46.50;;;16.90;99.90;;;;;;5048792;28;20517;-31
2022/09/08 08:04:40;;;;;;;60.40;48.35;;;16.90;99.90;;;;;;5034663;28;20071;-31
2022/09/08 08:07:14;;;;;;;66.95;50.65;;;16.90;99.90;;;;;;5014903;28;20133;-31
2022/09/08 08:10:09;;;;;;;71.75;53.22;;;16.90;99.90;;;;;;5017605;28;20096;-31
2022/09/08 08:12:41;;;;;;;66.05;51.13;;;17.00;99.90;;;;;;5030546;28;20502;-31
2022/09/08 08:15:20;;;;;;;64.63;52.20;;;16.90;99.90;;;;;;5052742;28;20041;-31
2022/09/08 08:18:18;;;;;;;72.88;53.17;;;16.90;99.90;;;;;;5020866;28;20040;-30
2022/09/08 08:20:59;;;;;;;73.28;52.60;;;16.90;99.90;;;;;;5025390;28;20052;-31
2022/09/08 08:23:40;;;;;;;51.70;42.78;;;17.00;99.90;;;;;;5034616;28;20036;-31
2022/09/08 08:26:18;;;;;;;55.50;41.85;;;17.00;99.90;;;;;;5034437;28;20564;-31
2022/09/08 08:28:45;;;;;;;51.10;41.88;;;16.90;99.90;;;;;;5034268;28;20063;-31
2022/09/08 08:31:29;;;;;;;54.10;40.20;;;16.90;99.90;;;;;;5033917;28;20040;-31
2022/09/08 08:34:07;;;;;;;49.17;36.55;;;17.00;99.90;;;;;;5034160;28;20045;-31
2022/09/08 08:36:42;;;;;;;51.95;37.15;;;16.90;99.90;;;;;;5026122;28;20111;-30
2022/09/08 08:39:24;;;;;;;50.20;37.50;;;16.90;99.90;;;;;;5048645;28;20397;-31
2022/09/08 08:42:08;;;;;;;46.40;38.93;;;16.90;99.90;;;;;;5054062;28;20182;-32
2022/09/08 08:44:55;;;;;;;49.45;37.95;;;16.90;99.90;;;;;;5037305;28;20430;-31
2022/09/08 08:48:08;;;;;;;39.50;33.47;;;17.00;99.90;;;;;;5044567;28;20520;-31
2022/09/08 08:50:59;;;;;;;38.03;33.53;;;17.00;99.90;;;;;;5021327;28;20045;-32
2022/09/08 08:53:43;;;;;;;37.80;32.42;;;17.00;99.90;;;;;;5043280;28;20037;-30
2022/09/08 08:56:24;;;;;;;38.50;31.85;;;17.10;99.90;;;;;;5047825;28;20043;-31
2022/09/08 08:58:50;;;;;;;38.92;32.47;;;17.10;99.90;;;;;;5034038;28;20051;-31
2022/09/08 09:01:15;;;;;;;37.95;30.60;;;17.20;99.90;;;;;;5033968;28;20045;-32
2022/09/08 09:04:26;;;;;;;32.25;28.77;;;17.10;99.90;;;;;;5034021;28;20399;-32
2022/09/08 09:07:10;;;;;;;26.95;23.00;;;17.20;99.90;;;;;;5034231;28;20048;-31
2022/09/08 09:10:00;;;;;;;24.20;19.30;;;17.20;99.90;;;;;;5037990;28;20037;-31
2022/09/08 09:13:03;;;;;;;21.65;17.60;;;17.20;99.90;;;;;;5048059;28;20036;-31
2022/09/08 09:15:50;;;;;;;19.45;16.70;;;17.20;99.90;;;;;;5037076;28;20094;-31
2022/09/08 09:18:50;;;;;;;20.80;18.02;;;17.10;99.90;;;;;;5038064;28;20052;-30
2022/09/08 09:21:26;;;;;;;20.42;16.23;;;17.20;99.90;;;;;;5037813;28;20116;-31
2022/09/08 09:24:04;;;;;;;19.48;16.63;;;17.20;99.90;;;;;;5038373;28;20072;-31
2022/09/08 09:26:33;;;;;;;17.92;16.10;;;17.20;99.90;;;;;;5057863;28;20043;-31
2022/09/08 09:29:21;;;;;;;17.77;15.73;;;17.30;99.90;;;;;;5042884;28;20398;-31
2022/09/08 09:32:08;;;;;;;18.25;16.25;;;17.30;99.90;;;;;;5037842;28;20446;-31
2022/09/08 09:34:52;;;;;;;19.02;16.58;;;17.30;99.90;;;;;;5037632;28;20033;-31
2022/09/08 09:37:19;;;;;;;16.83;15.13;;;17.30;99.90;;;;;;5037875;28;20041;-31
2022/09/08 09:39:44;;;;;;;17.00;15.20;;;17.30;99.90;;;;;;5037422;28;20072;-31
2022/09/08 09:42:38;;;;;;;16.20;14.57;;;17.20;99.90;;;;;;5037506;28;20146;-30
2022/09/08 09:45:35;;;;;;;14.35;12.82;;;17.20;99.90;;;;;;5017701;28;20095;-31
2022/09/08 09:48:14;;;;;;;12.43;11.13;;;17.20;99.90;;;;;;5048801;28;20129;-30
2022/09/08 09:50:59;;;;;;;9.30;8.40;;;17.10;99.90;;;;;;5038279;28;20036;-31
2022/09/08 09:53:27;;;;;;;9.38;8.43;;;17.10;99.90;;;;;;5037320;28;20143;-31
2022/09/08 09:55:59;;;;;;;8.93;7.85;;;17.00;99.90;;;;;;5049250;28;20037;-32
2022/09/08 09:59:00;;;;;;;6.38;5.78;;;17.00;99.90;;;;;;5038215;28;20115;-31
2022/09/08 10:01:38;;;;;;;7.25;5.15;;;17.00;99.90;;;;;;5036753;28;20040;-31
2022/09/08 10:04:21;;;;;;;5.00;4.47;;;17.00;99.90;;;;;;5037296;28;20041;-31
2022/09/08 10:07:06;;;;;;;;;;;17.00;99.90;;;;;;5036496;28;20037;-31
2022/09/08 10:09:44;;;;;;;;;;;17.00;99.90;;;;;;5055131;28;19932;-31
2022/09/08 10:12:12;;;;;;;5.15;4.65;;;17.00;99.90;;;;;;5048967;28;19916;-31
2022/09/08 10:14:41;;;;;;;7.50;5.78;;;17.00;99.90;;;;;;5036721;28;20398;-31
2022/09/08 10:17:20;;;;;;;6.72;5.63;;;17.00;99.90;;;;;;5051031;28;20478;-30
2022/09/08 10:20:07;;;;;;;7.50;5.63;;;17.10;99.90;;;;;;5045641;28;20398;-31
2022/09/08 10:22:59;;;;;;;9.00;5.97;;;17.10;99.90;;;;;;5036726;28;20068;-31
2022/09/08 10:25:25;;;;;;;6.15;5.55;;;17.10;99.90;;;;;;5036474;28;20041;-32
2022/09/08 10:27:54;;;;;;;6.40;5.72;;;17.10;99.90;;;;;;5040612;28;20056;-31
2022/09/08 10:30:47;;;;;;;5.47;5.00;;;17.10;99.90;;;;;;5038315;28;20041;-31
2022/09/08 10:33:42;;;;;;;5.85;5.32;;;17.10;99.90;;;;;;5008721;28;20048;-31
2022/09/08 10:36:09;;;;;;;5.82;5.20;;;17.10;99.90;;;;;;5036688;28;20041;-31
2022/09/08 10:39:11;;;;;;;8.60;6.38;;;17.00;99.90;;;;;;5036700;28;20072;-31
2022/09/08 10:41:42;;;;;;;9.23;6.45;;;17.00;99.90;;;;;;5028457;28;20543;-31
2022/09/08 10:44:50;;;;;;;8.60;7.28;;;17.00;99.90;;;;;;5036477;28;20123;-31
2022/09/08 10:47:36;;;;;;;8.32;6.90;;;17.00;99.90;;;;;;4975811;28;20082;-31
2022/09/08 10:50:20;;;;;;;8.00;6.70;;;17.00;99.90;;;;;;5045315;28;20053;-31
2022/09/08 10:53:04;;;;;;;8.50;7.32;;;17.00;99.90;;;;;;5036268;28;20037;-30
2022/09/08 10:55:36;;;;;;;8.65;7.85;;;17.00;99.90;;;;;;5019900;28;20041;-30
2022/09/08 10:58:54;;;;;;;9.60;8.23;;;17.00;99.90;;;;;;5037918;28;20041;-31
2022/09/08 11:01:40;;;;;;;7.55;6.68;;;17.10;99.90;;;;;;5010807;28;20044;-31
2022/09/08 11:04:38;;;;;;;7.63;6.93;;;17.00;99.90;;;;;;5036149;28;20029;-33
2022/09/08 11:07:24;;;;;;;7.95;7.15;;;17.10;99.90;;;;;;5031643;28;20045;-31
2022/09/08 11:10:20;;;;;;;7.40;6.70;;;17.10;99.90;;;;;;5036024;28;20380;-31
2022/09/08 11:12:49;;;;;;;7.78;7.07;;;17.10;99.90;;;;;;5035777;28;20086;-32
2022/09/08 11:15:34;;;;;;;8.32;7.57;;;17.10;99.90;;;;;;5051030;28;20079;-31
2022/09/08 11:18:32;;;;;;;8.65;7.22;;;17.20;99.90;;;;;;5024328;28;20483;-30
2022/09/08 11:21:02;;;;;;;7.60;6.90;;;17.20;99.90;;;;;;5029511;28;20048;-31
2022/09/08 11:23:52;;;;;;;8.90;7.50;;;17.20;99.90;;;;;;5035860;28;20398;-31
2022/09/08 11:26:39;;;;;;;8.13;7.32;;;17.20;99.90;;;;;;5035262;28;20044;-31
2022/09/08 11:29:16;;;;;;;7.30;6.60;;;17.20;99.90;;;;;;5035431;28;20051;-31
2022/09/08 11:32:21;;;;;;;7.70;6.90;;;17.30;99.90;;;;;;5044573;28;20393;-31
2022/09/08 11:35:24;;;;;;;8.50;7.70;;;17.30;99.90;;;;;;5028634;28;20045;-31
2022/09/08 11:38:22;;;;;;;10.05;7.65;;;17.30;99.90;;;;;;5036272;28;20102;-31
2022/09/08 11:41:14;;;;;;;8.68;7.80;;;17.40;99.90;;;;;;5019779;28;20414;-30
2022/09/08 11:44:04;;;;;;;9.07;8.00;;;17.40;99.90;;;;;;5024726;28;20051;-30
2022/09/08 11:46:36;;;;;;;8.10;6.90;;;17.50;99.90;;;;;;5035505;28;20043;-31
2022/09/08 11:49:20;;;;;;;9.40;8.23;;;17.60;99.90;;;;;;5035083;28;20053;-32
2022/09/08 11:52:05;;;;;;;;;;;17.70;99.90;;;;;;5022209;28;20036;-30
2022/09/08 11:54:49;;;;;;;8.23;7.43;;;17.70;99.90;;;;;;5035079;28;19920;-31
2022/09/08 11:57:40;;;;;;;9.45;8.55;;;17.80;99.90;;;;;;5034925;28;20410;-31
2022/09/08 12:00:43;;;;;;;8.93;8.13;;;17.90;99.90;;;;;;5034661;28;20037;-31
2022/09/08 12:03:31;;;;;;;9.87;8.97;;;17.90;99.90;;;;;;5035413;28;20041;-31
2022/09/08 12:05:57;;;;;;;10.60;9.55;;;18.00;99.90;;;;;;5034648;28;20045;-31
2022/09/08 12:08:29;;;;;;;12.38;10.57;;;18.00;99.90;;;;;;5044328;28;20041;-32
2022/09/08 12:11:03;;;;;;;10.95;9.88;;;18.10;99.90;;;;;;5028760;28;20151;-31
2022/09/08 12:13:34;;;;;;;10.80;9.70;;;18.10;99.90;;;;;;5031760;28;20043;-31
2022/09/08 12:16:15;;;;;;;12.45;9.60;;;18.10;99.90;;;;;;5054466;28;20040;-31
2022/09/08 12:19:07;;;;;;;12.27;10.27;;;18.10;99.90;;;;;;5027877;28;20118;-31
2022/09/08 12:21:54;;;;;;;11.35;10.27;;;18.20;99.90;;;;;;5040548;28;20540;-30
2022/09/08 12:24:40;;;;;;;12.00;10.25;;;18.30;99.90;;;;;;5034457;28;20111;-31
2022/09/08 12:27:26;;;;;;;10.32;9.27;;;18.50;99.90;;;;;;5034473;28;20124;-31
2022/09/08 12:29:55;;;;;;;11.32;9.73;;;18.50;99.90;;;;;;5011772;28;20049;-31
2022/09/08 12:32:43;;;;;;;11.27;10.18;;;18.60;99.90;;;;;;5064748;28;20474;-30
2022/09/08 12:35:24;;;;;;;11.05;10.00;;;18.70;99.90;;;;;;5034493;28;20119;-32
2022/09/08 12:37:54;;;;;;;12.35;11.10;;;18.70;99.90;;;;;;5031519;28;20037;-31
2022/09/08 12:40:25;;;;;;;13.20;11.95;;;18.80;99.90;;;;;;5033778;28;20076;-32
2022/09/08 12:43:00;;;;;;;14.30;12.18;;;18.90;99.90;;;;;;5033727;28;20049;-30
2022/09/08 12:45:56;;;;;;;14.40;11.63;;;19.00;99.90;;;;;;5034245;28;20506;-32
2022/09/08 12:48:32;;;;;;;12.45;11.35;;;19.20;99.90;;;;;;5031951;28;20033;-32
2022/09/08 12:51:05;;;;;;;14.55;12.88;;;19.20;99.90;;;;;;5044197;28;20116;-31
2022/09/08 12:53:37;;;;;;;13.05;11.75;;;19.20;99.90;;;;;;5032005;28;20429;-31
2022/09/08 12:56:19;;;;;;;13.88;12.45;;;19.20;99.90;;;;;;5040364;28;20037;-30
2022/09/08 12:59:18;;;;;;;13.50;12.20;;;19.10;99.90;;;;;;5033959;28;20041;-31
2022/09/08 13:01:50;;;;;;;15.65;13.57;;;19.20;99.90;;;;;;5015616;28;20359;-31
2022/09/08 13:04:37;;;;;;;14.93;13.52;;;19.30;99.90;;;;;;5036613;28;20041;-31
2022/09/08 13:07:35;;;;;;;17.55;13.98;;;19.40;99.90;;;;;;5029119;28;20099;-31
2022/09/08 13:10:10;;;;;;;13.50;12.10;;;19.40;99.90;;;;;;5034817;28;20049;-32
2022/09/08 13:12:49;;;;;;;13.93;12.52;;;19.60;99.90;;;;;;5049545;28;20029;-31
2022/09/08 13:15:27;;;;;;;14.20;12.20;;;19.60;99.90;;;;;;5039117;28;20509;-31
2022/09/08 13:18:07;;;;;;;14.43;12.93;;;19.60;99.90;;;;;;5028116;28;20044;-32